Time;durP1;ratioP1;P1;durP2;ratioP2;P2;SDS_P1;SDS_P2;PMS_P1;PMS_P2;Temp;Humidity;BMP_temperature;BMP_pressure;BME280_temperature;BME280_humidity;BME280_pressure;Samples;Min_cycle;Max_cycle;Signal;HPM_P1;HPM_P2
2021/12/22 00:00:20;;;;;;;81.32;28.50;;;;;;;-3.89;89.21;102604.38;4990381;28;20084;-86
2021/12/22 00:02:46;;;;;;;72.13;28.35;;;;;;;-3.92;88.83;102601.50;4991767;28;20057;-86
2021/12/22 00:05:22;;;;;;;79.90;27.67;;;;;;;-3.92;89.28;102606.59;4986379;28;20065;-85
2021/12/22 00:07:48;;;;;;;89.40;29.63;;;;;;;-3.91;89.02;102608.38;4985740;28;20054;-87
2021/12/22 00:10:14;;;;;;;88.30;29.95;;;;;;;-3.92;89.25;102604.03;4987316;28;20493;-87
2021/12/22 00:12:40;;;;;;;84.88;30.17;;;;;;;-3.92;88.97;102604.03;4986737;28;20096;-86
2021/12/22 00:15:06;;;;;;;85.15;30.50;;;;;;;-3.94;89.30;102603.88;4990567;28;20501;-87
2021/12/22 00:17:31;;;;;;;87.72;29.73;;;;;;;-3.95;88.66;102609.69;4989952;28;20128;-87
2021/12/22 00:19:57;;;;;;;85.30;30.05;;;;;;;-3.95;89.13;102609.69;4992470;28;20022;-86
2021/12/22 00:22:22;;;;;;;75.72;28.85;;;;;;;-3.97;88.66;102608.59;4990310;28;20038;-86
2021/12/22 00:24:48;;;;;;;86.30;30.88;;;;;;;-3.96;89.48;102614.63;4990489;28;20036;-86
2021/12/22 00:27:13;;;;;;;78.88;29.23;;;;;;;-3.98;88.56;102610.97;4990183;28;20030;-86
2021/12/22 00:29:39;;;;;;;78.18;30.25;;;;;;;-4.02;88.84;102605.56;4991535;28;20093;-86
2021/12/22 00:32:13;;;;;;;83.38;29.52;;;;;;;-4.00;88.97;102602.28;4990222;28;20034;-86
2021/12/22 00:34:47;;;;;;;79.82;29.33;;;;;;;-4.03;89.39;102603.75;4990731;28;20101;-86
2021/12/22 00:37:15;;;;;;;78.28;28.50;;;;;;;-4.06;88.79;102608.50;4990214;28;20076;-87
2021/12/22 00:39:40;;;;;;;91.45;29.77;;;;;;;-4.07;89.94;102606.69;4986629;28;20034;-86
2021/12/22 00:42:06;;;;;;;75.75;29.13;;;;;;;-4.06;90.18;102602.50;4991644;28;20030;-86
2021/12/22 00:44:31;;;;;;;88.03;30.42;;;;;;;-4.09;90.51;102609.81;4990508;28;20471;-87
2021/12/22 00:46:56;;;;;;;83.72;28.90;;;;;;;-4.12;90.82;102612.91;4990213;28;20085;-87
2021/12/22 00:49:22;;;;;;;91.35;29.85;;;;;;;-4.11;90.83;102617.28;4987279;28;20026;-87
2021/12/22 00:51:47;;;;;;;70.95;27.98;;;;;;;-4.10;90.22;102615.63;4988015;28;20105;-87
2021/12/22 00:54:12;;;;;;;82.55;28.30;;;;;;;-4.10;90.06;102615.63;4989116;28;20022;-86
2021/12/22 00:56:38;;;;;;;82.45;29.15;;;;;;;-4.11;89.72;102602.00;4991880;28;20113;-86
2021/12/22 00:59:04;;;;;;;82.35;30.52;;;;;;;-4.15;89.88;102607.47;4991193;28;20046;-86
2021/12/22 01:01:29;;;;;;;89.22;28.80;;;;;;;-4.16;90.21;102612.41;4992017;28;20068;-86
2021/12/22 01:03:56;;;;;;;75.63;27.92;;;;;;;-4.16;89.08;102610.75;4989785;28;20061;-87
2021/12/22 01:06:22;;;;;;;78.32;30.48;;;;;;;-4.18;89.06;102606.25;4990577;28;20041;-86
2021/12/22 01:08:47;;;;;;;84.63;29.42;;;;;;;-4.23;89.03;102604.09;4989391;28;20034;-87
2021/12/22 01:11:13;;;;;;;79.30;27.88;;;;;;;-4.26;88.33;102613.94;4990249;28;20034;-85
2021/12/22 01:13:38;;;;;;;78.88;28.50;;;;;;;-4.26;89.02;102619.03;4991728;28;20018;-87
2021/12/22 01:16:04;;;;;;;87.38;28.48;;;;;;;-4.27;89.18;102613.75;4991932;28;20490;-87
2021/12/22 01:18:32;;;;;;;82.20;28.92;;;;;;;-4.26;88.98;102607.91;4989883;28;20635;-87
2021/12/22 01:22:07;;;;;;;87.18;29.13;;;;;;;-4.27;88.05;102611.19;4990656;28;20566;-87
2021/12/22 01:26:44;;;;;;;74.35;28.67;;;;;;;-4.31;88.43;102594.69;4986745;28;20037;-87
2021/12/22 01:29:10;;;;;;;88.40;28.90;;;;;;;-4.33;88.23;102593.63;4989870;28;20031;-87
2021/12/22 01:31:36;;;;;;;77.75;28.17;;;;;;;-4.34;88.49;102598.50;4991453;28;20469;-87
2021/12/22 01:34:01;;;;;;;90.65;29.83;;;;;;;-4.38;88.55;102593.09;4996242;28;20038;-87
2021/12/22 01:36:26;;;;;;;80.07;28.55;;;;;;;-4.39;88.37;102596.41;4991421;28;20058;-86
2021/12/22 01:38:52;;;;;;;79.93;29.02;;;;;;;-4.40;88.66;102598.78;4990875;28;20032;-87
2021/12/22 01:41:17;;;;;;;84.63;29.00;;;;;;;-4.41;88.83;102602.94;4988950;28;20560;-86
2021/12/22 01:43:42;;;;;;;84.72;28.25;;;;;;;-4.41;88.54;102608.00;4987612;28;20034;-87
2021/12/22 01:49:11;;;;;;;81.40;29.15;;;;;;;-4.44;88.91;102588.97;4989614;28;20052;-87
2021/12/22 01:52:03;;;;;;;85.50;28.10;;;;;;;-4.44;89.19;102591.53;4990148;28;20026;-86
2021/12/22 01:55:04;;;;;;;83.97;28.48;;;;;;;-4.43;89.01;102594.22;4983761;28;20084;-86
2021/12/22 01:57:32;;;;;;;92.03;30.33;;;;;;;-4.44;90.38;102587.31;4987640;28;20398;-86
2021/12/22 02:00:00;;;;;;;86.53;28.77;;;;;;;-4.43;90.54;102589.16;4987351;28;20494;-87
2021/12/22 02:02:26;;;;;;;83.95;29.27;;;;;;;-4.42;89.43;102585.88;4989789;28;20493;-86
2021/12/22 02:04:51;;;;;;;80.25;30.10;;;;;;;-4.43;89.50;102583.13;4987975;28;20139;-87
2021/12/22 02:07:17;;;;;;;86.03;28.20;;;;;;;-4.43;90.04;102599.31;4988597;28;20106;-80
2021/12/22 02:10:06;;;;;;;81.68;28.10;;;;;;;-4.43;89.70;102606.94;4987087;28;20516;-79
2021/12/22 02:12:37;;;;;;;85.18;31.20;;;;;;;-4.43;88.94;102606.94;4987310;28;20030;-79
2021/12/22 02:15:06;;;;;;;89.57;29.58;;;;;;;-4.45;88.71;102607.50;4989443;28;20041;-79
2021/12/22 02:17:31;;;;;;;90.55;30.10;;;;;;;-4.47;89.23;102606.44;4988343;28;20611;-79
2021/12/22 02:19:57;;;;;;;79.93;30.08;;;;;;;-4.51;88.69;102610.25;4987666;28;20598;-79
2021/12/22 02:22:23;;;;;;;92.00;28.60;;;;;;;-4.54;88.73;102607.38;4984738;28;20327;-79
2021/12/22 02:24:52;;;;;;;82.88;29.10;;;;;;;-4.53;89.14;102609.19;4981183;28;20379;-79
2021/12/22 02:27:26;;;;;;;86.40;29.13;;;;;;;-4.53;88.80;102616.84;4988303;28;20026;-79
2021/12/22 02:29:58;;;;;;;72.40;27.67;;;;;;;-4.52;89.35;102602.47;4989340;28;20054;-79
2021/12/22 02:35:07;;;;;;;80.43;27.35;;;;;;;-4.57;88.97;102609.59;4986042;28;20072;-79
2021/12/22 02:37:42;;;;;;;82.00;27.98;;;;;;;-4.60;89.12;102609.25;4988142;28;20049;-86
2021/12/22 02:40:12;;;;;;;80.05;27.65;;;;;;;-4.61;88.64;102598.13;4990624;28;20069;-86
2021/12/22 02:42:37;;;;;;;73.35;26.80;;;;;;;-4.61;89.16;102612.50;4989191;28;20073;-86
2021/12/22 02:45:07;;;;;;;87.90;30.10;;;;;;;-4.62;88.58;102605.59;4986403;28;20033;-86
2021/12/22 02:47:32;;;;;;;87.47;28.38;;;;;;;-4.63;88.77;102611.44;4984575;28;20394;-86
2021/12/22 02:49:57;;;;;;;85.82;28.15;;;;;;;-4.65;88.15;102610.34;4988854;28;20165;-86
2021/12/22 02:52:29;;;;;;;85.15;27.83;;;;;;;-4.68;89.04;102599.81;4989441;28;20034;-86
2021/12/22 02:54:56;;;;;;;88.35;29.65;;;;;;;-4.70;88.73;102591.13;4989916;28;20026;-86
2021/12/22 02:57:30;;;;;;;80.85;26.90;;;;;;;-4.69;88.65;102592.91;4989066;28;20088;-86
2021/12/22 03:02:57;;;;;;;95.03;29.73;;;;;;;-4.75;88.31;102591.50;4986410;28;20076;-86
2021/12/22 03:05:28;;;;;;;78.60;26.83;;;;;;;-4.76;88.78;102596.44;4990737;28;20018;-86
2021/12/22 03:07:54;;;;;;;74.40;26.73;;;;;;;-4.76;88.75;102596.44;4988137;28;20014;-85
2021/12/22 03:10:20;;;;;;;76.03;26.33;;;;;;;-4.75;89.54;102596.59;4988943;28;20040;-86
2021/12/22 03:12:51;;;;;;;79.80;27.27;;;;;;;-4.72;89.38;102603.69;4992196;28;20030;-86
2021/12/22 03:15:17;;;;;;;70.72;27.02;;;;;;;-4.72;89.35;102603.69;4994307;28;20026;-85
2021/12/22 03:17:43;;;;;;;73.63;27.38;;;;;;;-4.70;89.18;102611.47;4992374;28;20088;-86
2021/12/22 03:20:11;;;;;;;81.38;27.08;;;;;;;-4.70;88.80;102611.47;4992643;28;20076;-86
2021/12/22 03:22:37;;;;;;;74.50;26.10;;;;;;;-4.69;88.76;102616.75;4993020;28;20054;-86
2021/12/22 03:25:13;;;;;;;70.00;25.77;;;;;;;-4.70;88.79;102614.91;4993535;28;20065;-85
2021/12/22 03:27:39;;;;;;;77.18;27.92;;;;;;;-4.70;88.99;102619.09;4989837;28;20434;-85
2021/12/22 03:30:06;;;;;;;75.43;26.35;;;;;;;-4.69;88.79;102615.81;4993021;28;20489;-86
2021/12/22 03:32:31;;;;;;;74.78;26.70;;;;;;;-4.68;89.06;102621.06;4992536;28;20041;-86
2021/12/22 03:34:56;;;;;;;74.03;26.30;;;;;;;-4.69;88.44;102623.44;4993754;28;20031;-86
2021/12/22 03:37:22;;;;;;;71.13;24.92;;;;;;;-4.71;89.11;102618.19;4993613;28;20478;-86
2021/12/22 03:39:47;;;;;;;73.25;26.15;;;;;;;-4.72;89.11;102618.94;4992802;28;20037;-86
2021/12/22 03:42:12;;;;;;;67.95;25.00;;;;;;;-4.73;88.76;102627.28;4993246;28;20030;-86
2021/12/22 03:44:38;;;;;;;75.10;26.40;;;;;;;-4.75;89.14;102621.09;4987724;28;20029;-86
2021/12/22 03:47:04;;;;;;;68.15;25.00;;;;;;;-4.77;89.24;102610.75;4990740;28;20030;-86
2021/12/22 03:49:29;;;;;;;80.68;27.23;;;;;;;-4.74;89.30;102608.56;4992649;28;20113;-86
2021/12/22 03:51:55;;;;;;;75.10;26.17;;;;;;;-4.69;90.07;102609.09;4990539;28;20363;-86
2021/12/22 03:54:20;;;;;;;73.85;26.45;;;;;;;-4.65;89.35;102600.16;4991911;28;20134;-86
2021/12/22 03:56:46;;;;;;;63.88;25.95;;;;;;;-4.62;90.84;102595.44;4992989;28;20034;-86
2021/12/22 03:59:11;;;;;;;75.38;26.33;;;;;;;-4.59;90.93;102600.84;4992296;28;20051;-86
2021/12/22 04:01:37;;;;;;;70.13;26.73;;;;;;;-4.55;91.16;102608.09;4990822;28;20026;-86
2021/12/22 04:04:11;;;;;;;70.47;25.25;;;;;;;-4.53;91.31;102604.13;4989983;28;20056;-86
2021/12/22 04:06:36;;;;;;;75.07;25.90;;;;;;;-4.53;90.97;102606.66;4993350;28;20054;-86
2021/12/22 04:09:03;;;;;;;70.38;25.30;;;;;;;-4.53;90.29;102609.19;4989648;28;20144;-86
2021/12/22 04:11:28;;;;;;;68.85;25.48;;;;;;;-4.50;90.28;102603.53;4990680;28;20033;-86
2021/12/22 04:13:53;;;;;;;64.32;25.13;;;;;;;-4.48;90.39;102602.97;4990066;28;20014;-86
2021/12/22 04:16:19;;;;;;;66.43;25.48;;;;;;;-4.48;89.50;102600.44;4991284;28;20034;-86
2021/12/22 04:18:44;;;;;;;67.00;24.52;;;;;;;-4.48;90.08;102600.44;4992061;28;20041;-86
2021/12/22 04:21:10;;;;;;;62.60;23.80;;;;;;;-4.48;89.36;102599.53;4990064;28;20375;-86
2021/12/22 04:23:35;;;;;;;69.40;24.88;;;;;;;-4.49;89.93;102593.56;4992088;28;20146;-86
2021/12/22 04:26:01;;;;;;;68.32;24.45;;;;;;;-4.47;89.65;102591.19;4992349;28;20773;-86
2021/12/22 04:28:27;;;;;;;64.38;24.33;;;;;;;-4.49;89.64;102591.00;4985688;28;20493;-86
2021/12/22 04:30:52;;;;;;;65.75;24.35;;;;;;;-4.50;89.94;102590.81;4984982;28;20030;-86
2021/12/22 04:33:21;;;;;;;63.60;25.27;;;;;;;-4.51;89.93;102579.75;4985775;28;20022;-86
2021/12/22 04:35:49;;;;;;;68.00;23.92;;;;;;;-4.51;89.04;102581.38;4989959;28;20494;-86
2021/12/22 04:38:15;;;;;;;69.20;23.80;;;;;;;-4.50;89.71;102581.56;4980620;28;20041;-86
2021/12/22 04:40:41;;;;;;;64.22;23.85;;;;;;;-4.50;90.37;102581.56;4992641;28;20096;-86
2021/12/22 04:43:06;;;;;;;66.47;24.30;;;;;;;-4.50;90.94;102575.53;4991903;28;20121;-86
2021/12/22 04:45:32;;;;;;;66.55;24.13;;;;;;;-4.50;91.05;102571.38;4992408;28;20161;-86
2021/12/22 04:47:57;;;;;;;63.65;25.27;;;;;;;-4.48;90.82;102577.53;4990121;28;20501;-86
2021/12/22 04:50:23;;;;;;;60.33;24.45;;;;;;;-4.48;90.38;102574.09;4992639;28;20185;-85
2021/12/22 04:53:00;;;;;;;60.55;23.90;;;;;;;-4.48;89.87;102574.09;4987104;28;20038;-86
2021/12/22 04:55:27;;;;;;;62.55;24.42;;;;;;;-4.50;89.38;102580.63;4990138;28;20228;-87
2021/12/22 04:57:55;;;;;;;64.63;23.70;;;;;;;-4.56;89.44;102574.13;4991879;28;20072;-86
2021/12/22 05:00:21;;;;;;;60.67;23.40;;;;;;;-4.60;89.47;102574.53;4990372;28;20050;-86
2021/12/22 05:02:47;;;;;;;62.22;22.65;;;;;;;-4.61;89.24;102572.69;4989626;28;20030;-86
2021/12/22 05:05:12;;;;;;;61.85;23.48;;;;;;;-4.63;88.97;102580.91;4990457;28;20045;-86
2021/12/22 05:07:38;;;;;;;64.18;23.63;;;;;;;-4.66;88.89;102567.84;4992251;28;20048;-86
2021/12/22 05:10:04;;;;;;;56.75;22.23;;;;;;;-4.68;88.82;102572.75;4990802;28;20034;-86
2021/12/22 05:12:30;;;;;;;56.22;22.55;;;;;;;-4.69;89.05;102560.78;4992253;28;20034;-86
2021/12/22 05:14:55;;;;;;;59.90;22.92;;;;;;;-4.72;89.08;102558.81;4998202;28;20022;-86
2021/12/22 05:17:38;;;;;;;55.22;22.88;;;;;;;-4.73;89.02;102556.97;4992478;28;20321;-85
2021/12/22 05:20:04;;;;;;;60.35;22.98;;;;;;;-4.74;88.87;102562.78;4991878;28;20528;-85
2021/12/22 05:22:30;;;;;;;53.80;21.48;;;;;;;-4.77;89.65;102557.34;4992160;28;20028;-86
2021/12/22 05:24:57;;;;;;;56.58;22.77;;;;;;;-4.78;89.41;102563.19;4991722;28;20037;-87
2021/12/22 05:27:23;;;;;;;56.00;21.45;;;;;;;-4.78;88.93;102562.28;4993429;28;20040;-86
2021/12/22 05:29:48;;;;;;;56.20;21.90;;;;;;;-4.81;89.08;102562.81;4991621;28;20145;-86
2021/12/22 05:32:13;;;;;;;57.22;21.75;;;;;;;-4.82;89.15;102575.38;4992265;28;20468;-86
2021/12/22 05:34:39;;;;;;;59.58;21.90;;;;;;;-4.84;89.81;102567.56;4991075;28;20015;-86
2021/12/22 05:37:04;;;;;;;52.97;21.27;;;;;;;-4.85;89.82;102569.94;4990736;28;20171;-86
2021/12/22 05:39:29;;;;;;;55.22;20.80;;;;;;;-4.86;89.70;102563.06;4991293;28;20033;-86
2021/12/22 05:41:55;;;;;;;47.47;19.67;;;;;;;-4.89;89.71;102558.53;4992159;28;20065;-85
2021/12/22 05:44:21;;;;;;;54.85;20.25;;;;;;;-4.90;89.69;102555.06;4988699;28;20605;-85
2021/12/22 05:46:46;;;;;;;51.15;21.00;;;;;;;-4.93;89.40;102548.75;4990289;28;20516;-86
2021/12/22 05:49:11;;;;;;;57.55;21.50;;;;;;;-4.94;89.65;102545.31;4986211;28;20030;-85
2021/12/22 05:51:37;;;;;;;50.65;19.38;;;;;;;-4.94;89.91;102549.47;4989867;28;20034;-86
2021/12/22 05:54:02;;;;;;;45.70;19.55;;;;;;;-4.95;89.56;102537.50;4989056;28;20034;-85
2021/12/22 05:56:30;;;;;;;48.67;18.50;;;;;;;-4.97;89.67;102541.50;4990549;28;20033;-86
2021/12/22 05:58:56;;;;;;;46.85;18.27;;;;;;;-4.99;89.76;102540.44;4986697;28;20131;-86
2021/12/22 06:01:21;;;;;;;46.72;18.35;;;;;;;-4.99;89.86;102541.31;4981060;28;20027;-85
2021/12/22 06:03:46;;;;;;;47.30;19.30;;;;;;;-4.98;89.52;102537.13;4987984;28;20034;-86
2021/12/22 06:06:12;;;;;;;40.53;19.13;;;;;;;-4.97;89.35;102544.03;4988890;28;20081;-86
2021/12/22 06:08:37;;;;;;;44.70;20.08;;;;;;;-4.96;89.06;102538.22;4980529;28;20104;-86
2021/12/22 06:11:03;;;;;;;44.15;18.85;;;;;;;-4.97;89.30;102544.03;4982501;28;20030;-85
2021/12/22 06:13:28;;;;;;;40.33;18.00;;;;;;;-4.98;89.52;102545.69;4989871;28;20050;-85
2021/12/22 06:15:53;;;;;;;44.10;18.27;;;;;;;-4.97;89.80;102551.66;4990349;28;20034;-85
2021/12/22 06:18:19;;;;;;;42.25;18.55;;;;;;;-4.97;89.92;102555.09;4989103;28;20549;-84
2021/12/22 06:20:44;;;;;;;49.30;17.85;;;;;;;-4.95;89.45;102557.84;4988239;28;20026;-85
2021/12/22 06:23:09;;;;;;;41.53;17.35;;;;;;;-4.93;89.32;102551.28;4984779;28;20058;-85
2021/12/22 06:25:35;;;;;;;45.28;18.63;;;;;;;-4.91;89.89;102562.53;4983445;28;20089;-86
2021/12/22 06:28:00;;;;;;;44.40;17.45;;;;;;;-4.91;89.49;102558.38;4985522;28;20037;-86
2021/12/22 06:30:26;;;;;;;44.90;17.80;;;;;;;-4.92;89.71;102554.00;4979646;28;20422;-85
2021/12/22 06:32:52;;;;;;;40.17;17.55;;;;;;;-4.91;89.79;102544.72;4989493;28;20117;-85
2021/12/22 06:35:17;;;;;;;46.70;18.25;;;;;;;-4.91;89.80;102550.75;4989951;28;20033;-85
2021/12/22 06:37:44;;;;;;;41.55;18.20;;;;;;;-4.92;89.72;102543.84;4990041;28;20349;-85
2021/12/22 06:40:10;;;;;;;40.10;17.00;;;;;;;-4.96;89.62;102540.78;4989448;28;20014;-86
2021/12/22 06:42:38;;;;;;;43.17;17.60;;;;;;;-4.99;89.63;102545.53;4990112;28;20028;-85
2021/12/22 06:45:05;;;;;;;44.03;17.77;;;;;;;-4.97;89.19;102549.13;4990744;28;20054;-84
2021/12/22 06:47:30;;;;;;;40.80;17.83;;;;;;;-4.97;89.72;102552.56;4990185;28;20026;-84
2021/12/22 06:49:56;;;;;;;47.78;18.13;;;;;;;-5.00;88.79;102549.69;4984213;28;20038;-85
2021/12/22 06:52:21;;;;;;;40.60;19.00;;;;;;;-4.99;89.27;102553.16;4986703;28;20056;-85
2021/12/22 06:54:46;;;;;;;43.30;18.50;;;;;;;-5.01;88.63;102557.13;4986182;28;20014;-84
2021/12/22 06:57:15;;;;;;;39.65;17.75;;;;;;;-5.03;89.03;102562.03;4990108;28;20038;-85
2021/12/22 06:59:40;;;;;;;44.75;18.58;;;;;;;-5.03;89.55;102563.69;4988302;28;20046;-85
2021/12/22 07:02:06;;;;;;;44.67;19.52;;;;;;;-5.03;89.00;102568.78;4986710;28;20129;-86
2021/12/22 07:04:32;;;;;;;41.10;17.13;;;;;;;-5.03;89.76;102568.78;4989557;28;20030;-86
2021/12/22 07:06:57;;;;;;;46.28;19.67;;;;;;;-5.00;90.25;102566.56;4987966;28;20430;-85
2021/12/22 07:09:25;;;;;;;39.75;19.05;;;;;;;-4.98;90.17;102568.56;4988808;28;20451;-86
2021/12/22 07:11:51;;;;;;;40.13;18.27;;;;;;;-4.98;89.66;102557.47;4990634;28;20021;-86
2021/12/22 07:14:16;;;;;;;37.10;16.65;;;;;;;-5.00;89.36;102553.88;4998212;28;20019;-85
2021/12/22 07:16:42;;;;;;;41.22;17.27;;;;;;;-5.00;89.96;102554.75;4990851;28;20033;-86
2021/12/22 07:19:07;;;;;;;41.38;18.05;;;;;;;-4.99;89.87;102551.50;4988705;28;20041;-85
2021/12/22 07:21:33;;;;;;;40.08;17.38;;;;;;;-4.97;90.15;102559.28;4990696;28;20033;-85
2021/12/22 07:23:58;;;;;;;39.95;17.80;;;;;;;-4.96;89.41;102551.84;4990176;28;20110;-86
2021/12/22 07:26:23;;;;;;;38.88;16.65;;;;;;;-4.93;89.64;102548.75;4990476;28;20022;-86
2021/12/22 07:28:49;;;;;;;44.47;17.65;;;;;;;-4.91;90.15;102544.72;4989434;28;20073;-86
2021/12/22 07:31:16;;;;;;;41.72;17.70;;;;;;;-4.88;89.45;102555.28;4992273;28;20516;-86
2021/12/22 07:34:10;;;;;;;40.42;17.55;;;;;;;-4.85;89.37;102555.63;4990211;28;20018;-85
2021/12/22 07:36:42;;;;;;;40.00;16.98;;;;;;;-4.84;89.95;102547.22;4989059;28;20034;-85
2021/12/22 07:39:07;;;;;;;37.25;17.23;;;;;;;-4.80;89.90;102546.84;4990198;28;20062;-86
2021/12/22 07:41:33;;;;;;;37.58;17.05;;;;;;;-4.79;89.57;102553.75;4988478;28;20064;-85
2021/12/22 07:43:58;;;;;;;37.58;16.85;;;;;;;-4.79;89.99;102548.66;4989290;28;20030;-85
2021/12/22 07:46:23;;;;;;;42.55;17.35;;;;;;;-4.79;90.29;102547.78;4990228;28;20057;-85
2021/12/22 07:48:49;;;;;;;40.03;18.15;;;;;;;-4.78;90.57;102550.50;4988540;28;20421;-85
2021/12/22 07:51:14;;;;;;;42.85;17.55;;;;;;;-4.74;90.34;102551.72;4989287;28;20034;-85
2021/12/22 07:53:40;;;;;;;40.13;17.48;;;;;;;-4.71;90.16;102546.97;4987172;28;20057;-85
2021/12/22 07:56:05;;;;;;;33.58;17.15;;;;;;;-4.69;89.69;102552.22;4981890;28;20026;-86
2021/12/22 07:58:31;;;;;;;37.83;18.15;;;;;;;-4.70;89.85;102541.16;4993298;28;20061;-86
2021/12/22 08:00:57;;;;;;;35.65;18.20;;;;;;;-4.68;89.80;102549.84;4993602;28;20048;-85
2021/12/22 08:03:24;;;;;;;40.10;17.10;;;;;;;-4.64;90.49;102551.13;4992734;28;20033;-86
2021/12/22 08:05:49;;;;;;;42.75;19.25;;;;;;;-4.61;90.90;102546.38;4992440;28;20264;-86
2021/12/22 08:08:17;;;;;;;38.22;17.52;;;;;;;-4.58;90.74;102546.72;4990870;28;20597;-86
2021/12/22 08:10:43;;;;;;;40.35;17.38;;;;;;;-4.53;90.40;102543.06;4992529;28;20034;-85
2021/12/22 08:13:08;;;;;;;46.47;18.90;;;;;;;-4.49;91.00;102545.22;4988557;28;20567;-85
2021/12/22 08:15:34;;;;;;;42.25;17.42;;;;;;;-4.45;90.82;102544.81;4992381;28;20023;-84
2021/12/22 08:17:59;;;;;;;40.00;16.90;;;;;;;-4.43;89.73;102543.34;4993034;28;20026;-85
2021/12/22 08:20:25;;;;;;;46.30;18.65;;;;;;;-4.40;89.50;102541.13;4993013;28;20121;-85
2021/12/22 08:22:50;;;;;;;39.50;18.27;;;;;;;-4.35;90.58;102530.56;4992859;28;20069;-85
2021/12/22 08:25:16;;;;;;;40.45;17.48;;;;;;;-4.30;90.34;102537.06;4985363;28;20496;-85
2021/12/22 08:27:41;;;;;;;41.65;18.27;;;;;;;-4.27;90.66;102534.84;4992624;28;20018;-86
2021/12/22 08:30:08;;;;;;;39.15;18.42;;;;;;;-4.24;90.50;102540.31;4992667;28;20516;-86
2021/12/22 08:32:34;;;;;;;41.05;18.50;;;;;;;-4.19;90.98;102544.25;4992879;28;20640;-85
2021/12/22 08:35:02;;;;;;;40.72;19.00;;;;;;;-4.12;90.67;102541.63;4991022;28;20026;-85
2021/12/22 08:40:14;;;;;;;42.17;17.98;;;;;;;-3.97;91.38;102538.97;4984040;28;20044;-83
2021/12/22 08:42:40;;;;;;;42.50;17.83;;;;;;;-3.89;91.76;102545.81;4985426;28;20030;-84
2021/12/22 08:45:06;;;;;;;51.17;19.90;;;;;;;-3.82;91.50;102543.19;4981439;28;20042;-84
2021/12/22 08:47:31;;;;;;;42.35;19.10;;;;;;;-3.76;92.13;102541.31;4991379;28;20049;-84
2021/12/22 08:49:57;;;;;;;41.20;19.15;;;;;;;-3.71;91.97;102532.53;4991664;28;20027;-84
2021/12/22 08:52:22;;;;;;;42.30;18.90;;;;;;;-3.64;91.87;102543.38;4984615;28;20022;-84
2021/12/22 08:54:47;;;;;;;46.60;18.85;;;;;;;-3.61;91.72;102541.16;4991772;28;20101;-84
2021/12/22 08:57:13;;;;;;;51.97;21.85;;;;;;;-3.55;91.67;102550.38;4991297;28;20030;-84
2021/12/22 08:59:38;;;;;;;41.03;19.60;;;;;;;-3.51;91.17;102543.94;4987745;28;20053;-84
2021/12/22 09:02:04;;;;;;;44.20;18.75;;;;;;;-3.46;91.89;102539.34;4984164;28;20033;-84
2021/12/22 09:04:30;;;;;;;43.03;19.85;;;;;;;-3.41;91.67;102535.66;4991179;28;20035;-84
2021/12/22 09:06:56;;;;;;;49.88;20.25;;;;;;;-3.36;92.01;102540.50;4984191;28;20089;-84
2021/12/22 09:09:21;;;;;;;50.67;20.42;;;;;;;-3.29;91.97;102539.50;4989360;28;20034;-83
2021/12/22 09:11:47;;;;;;;46.90;20.52;;;;;;;-3.22;91.47;102543.63;4987930;28;20474;-83
2021/12/22 09:14:13;;;;;;;45.65;20.13;;;;;;;-3.16;92.05;102541.72;4989319;28;20113;-84
2021/12/22 09:16:39;;;;;;;41.75;18.90;;;;;;;-3.10;91.29;102547.47;4994410;28;20105;-84
2021/12/22 09:19:06;;;;;;;48.92;20.13;;;;;;;-3.05;91.66;102537.75;4996929;28;20026;-84
2021/12/22 09:21:32;;;;;;;45.47;21.67;;;;;;;-3.03;91.53;102529.50;4991227;28;20551;-84
2021/12/22 09:23:58;;;;;;;47.42;20.52;;;;;;;-3.02;91.41;102528.78;4987492;28;20026;-83
2021/12/22 09:26:23;;;;;;;46.90;20.48;;;;;;;-3.00;90.92;102529.88;4990332;28;20568;-84
2021/12/22 09:28:49;;;;;;;47.20;21.23;;;;;;;-2.98;91.15;102528.38;4991038;28;20026;-84
2021/12/22 09:31:15;;;;;;;52.50;23.35;;;;;;;-2.95;91.20;102535.44;4990374;28;20026;-84
2021/12/22 09:33:41;;;;;;;51.78;23.98;;;;;;;-2.92;91.74;102538.31;4991533;28;20025;-85
2021/12/22 09:36:08;;;;;;;50.92;23.00;;;;;;;-2.89;91.56;102546.28;4989869;28;20109;-84
2021/12/22 09:38:34;;;;;;;48.42;22.63;;;;;;;-2.85;91.40;102532.22;4991994;28;20037;-84
2021/12/22 09:41:00;;;;;;;48.70;22.85;;;;;;;-2.82;91.17;102519.78;4989481;28;20023;-84
2021/12/22 09:43:27;;;;;;;51.13;23.55;;;;;;;-2.79;91.06;102525.19;4991473;28;20061;-84
2021/12/22 09:45:58;;;;;;;51.55;22.40;;;;;;;-2.75;91.48;102529.88;4990969;28;20029;-85
2021/12/22 09:48:33;;;;;;;51.97;22.23;;;;;;;-2.72;91.00;102522.53;4991181;28;20553;-85
2021/12/22 09:53:30;;;;;;;45.75;20.35;;;;;;;-2.60;91.40;102514.34;4984508;28;20026;-86
2021/12/22 09:55:58;;;;;;;47.35;21.50;;;;;;;-2.56;91.79;102513.91;4986349;28;20036;-86
2021/12/22 09:58:25;;;;;;;45.40;20.73;;;;;;;-2.51;91.42;102523.84;4991260;28;20049;-87
2021/12/22 10:00:51;;;;;;;47.80;20.85;;;;;;;-2.49;91.88;102524.94;4988487;28;21275;-87
2021/12/22 10:03:17;;;;;;;46.58;20.13;;;;;;;-2.43;91.39;102529.75;4990934;28;20041;-87
2021/12/22 10:05:46;;;;;;;47.10;21.83;;;;;;;-2.39;91.34;102521.69;4984171;28;20057;-87
2021/12/22 10:08:20;;;;;;;44.22;21.92;;;;;;;-2.36;91.56;102522.00;4989572;28;20504;-88
2021/12/22 10:11:04;;;;;;;41.65;20.90;;;;;;;-2.32;91.41;102513.91;4978733;28;20700;-88
2021/12/22 10:13:31;;;;;;;51.58;21.25;;;;;;;-2.27;91.47;102520.38;4989822;28;20441;-87
2021/12/22 10:15:58;;;;;;;47.72;21.73;;;;;;;-2.22;91.66;102523.38;4988300;28;20038;-87
2021/12/22 10:18:26;;;;;;;50.03;22.02;;;;;;;-2.18;91.49;102511.84;4988389;28;20216;-87
2021/12/22 10:21:06;;;;;;;53.20;23.70;;;;;;;-2.14;91.62;102512.31;4988380;28;20045;-87
2021/12/22 10:23:32;;;;;;;54.00;22.40;;;;;;;-2.10;91.49;102509.31;4990074;28;20034;-87
2021/12/22 10:26:00;;;;;;;47.15;21.20;;;;;;;-2.07;91.58;102498.53;4983783;28;20473;-65
2021/12/22 10:28:27;;;;;;;49.58;23.10;;;;;;;-2.05;91.42;102507.22;4989409;28;20712;-65
2021/12/22 10:30:55;;;;;;;50.58;22.52;;;;;;;-2.01;90.96;102504.25;4988782;28;20045;-65
2021/12/22 10:33:26;;;;;;;42.95;22.13;;;;;;;-1.98;91.08;102512.22;4988630;28;20022;-65
2021/12/22 10:36:13;;;;;;;52.20;22.85;;;;;;;-1.95;91.03;102504.84;4986933;28;20049;-65
2021/12/22 10:38:39;;;;;;;49.03;22.88;;;;;;;-1.90;90.99;102501.88;4990132;28;20077;-65
2021/12/22 10:41:10;;;;;;;45.90;22.00;;;;;;;-1.87;91.28;102497.06;4988753;28;20128;-65
2021/12/22 10:43:42;;;;;;;53.42;23.05;;;;;;;-1.86;91.25;102492.09;4990568;28;20978;-65
2021/12/22 10:46:13;;;;;;;48.30;22.00;;;;;;;-1.83;91.31;102492.41;4981065;28;20063;-65
2021/12/22 10:51:26;;;;;;;54.15;22.58;;;;;;;-1.75;90.90;102472.75;4986245;28;20044;-66
2021/12/22 10:53:53;;;;;;;47.78;21.90;;;;;;;-1.73;90.97;102485.69;4988089;28;20026;-66
2021/12/22 10:56:26;;;;;;;46.58;22.30;;;;;;;-1.72;91.00;102478.16;4986554;28;20401;-66
2021/12/22 10:59:03;;;;;;;50.03;23.30;;;;;;;-1.71;91.24;102472.28;4986349;28;20038;-66
2021/12/22 11:01:29;;;;;;;47.97;22.42;;;;;;;-1.70;91.09;102463.88;4986049;28;20121;-66
2021/12/22 11:04:02;;;;;;;51.20;22.48;;;;;;;-1.67;90.84;102460.72;4988480;28;20456;-66
2021/12/22 11:06:30;;;;;;;48.83;22.83;;;;;;;-1.65;91.22;102462.69;4986191;28;20042;-66
2021/12/22 11:09:14;;;;;;;53.03;24.73;;;;;;;-1.62;91.12;102452.75;4990137;28;20041;-66
2021/12/22 11:11:47;;;;;;;55.63;24.75;;;;;;;-1.59;91.10;102464.94;4988246;28;20501;-66
2021/12/22 11:14:22;;;;;;;54.00;26.10;;;;;;;-1.56;91.53;102457.56;4984253;28;20022;-66
2021/12/22 11:17:06;;;;;;;60.33;27.75;;;;;;;-1.53;91.08;102455.31;4990087;28;20029;-66
2021/12/22 11:19:54;;;;;;;58.30;28.02;;;;;;;-1.51;91.37;102447.78;4990037;28;20055;-66
2021/12/22 11:22:26;;;;;;;56.38;27.23;;;;;;;-1.48;91.15;102455.75;4990093;28;20060;-66
2021/12/22 11:24:53;;;;;;;58.85;28.60;;;;;;;-1.45;91.00;102453.50;4989656;28;20113;-66
2021/12/22 11:27:25;;;;;;;56.47;27.45;;;;;;;-1.42;91.16;102459.84;4989861;28;20041;-65
2021/12/22 11:29:57;;;;;;;54.83;25.50;;;;;;;-1.38;90.58;102453.34;4987878;28;20034;-64